Terminal Aerodrome Forecast
Issued by NWS Melbourne, FL

Home | Current Version | Previous Version | Text Only | Print | Product List | Glossary On
Versions: 1 2 3 4 5 6 7 8 9 10 11
000
FTUS42 KMLB 201700 RRA
TAFDAB
TAF
KDAB 201745Z 2018/2112 22005KT P6SM SCT030 SCT050 BKN110
     FM202000 06006KT P6SM BKN080 OVC120
     FM210600 VRB03KT 5SM BR BKN025 OVC060=

USA.gov is the U.S. government's official web portal to all federal, state and local government web resources and services.